createdAt,value
2022-08-29T00:01:13.375Z,19.07
2022-08-29T00:03:42.077Z,19.06
2022-08-29T00:06:12.620Z,19.03
2022-08-29T00:08:40.698Z,18.99
2022-08-29T00:11:08.906Z,18.93
2022-08-29T00:14:01.395Z,18.88
2022-08-29T00:16:29.542Z,18.84
2022-08-29T00:18:58.192Z,18.81
2022-08-29T00:21:27.569Z,18.77
2022-08-29T00:23:55.555Z,18.69
2022-08-29T00:26:23.575Z,18.61
2022-08-29T00:28:54.622Z,18.55
2022-08-29T00:31:22.689Z,18.56
2022-08-29T00:33:51.283Z,18.56
2022-08-29T00:36:19.295Z,18.57
2022-08-29T00:38:52.020Z,18.49
2022-08-29T00:41:20.660Z,18.49
2022-08-29T00:43:48.689Z,18.40
2022-08-29T00:46:47.614Z,18.39
2022-08-29T00:49:26.657Z,18.33
2022-08-29T00:51:54.863Z,18.34
2022-08-29T00:54:24.589Z,18.36
2022-08-29T00:56:52.637Z,18.36
2022-08-29T00:59:22.892Z,18.38
2022-08-29T01:01:54.050Z,18.35
2022-08-29T01:04:23.736Z,18.30
2022-08-29T01:06:52.566Z,18.29
2022-08-29T01:09:21.369Z,18.30
2022-08-29T01:12:08.336Z,18.21
2022-08-29T01:14:38.581Z,18.19
2022-08-29T01:17:07.670Z,18.17
2022-08-29T01:19:44.498Z,18.15
2022-08-29T01:22:25.179Z,18.07
2022-08-29T01:24:54.714Z,18.07
2022-08-29T01:27:25.057Z,18.00
2022-08-29T01:29:53.019Z,18.01
2022-08-29T01:32:21.087Z,17.98
2022-08-29T01:34:49.151Z,17.96
2022-08-29T01:37:18.018Z,17.94
2022-08-29T01:39:46.747Z,17.95
2022-08-29T01:42:19.482Z,17.92
2022-08-29T01:44:49.671Z,17.88
2022-08-29T01:47:18.180Z,17.83
2022-08-29T01:49:46.826Z,17.78
2022-08-29T01:52:15.608Z,17.83
2022-08-29T01:54:44.920Z,17.77
2022-08-29T01:57:14.191Z,17.75
2022-08-29T01:59:44.616Z,17.70
2022-08-29T02:02:17.049Z,17.63
2022-08-29T02:04:47.193Z,17.55
2022-08-29T02:07:17.536Z,17.57
2022-08-29T02:09:46.760Z,17.59
2022-08-29T02:12:15.177Z,17.51
2022-08-29T02:14:44.915Z,17.46
2022-08-29T02:17:12.965Z,17.46
2022-08-29T02:19:41.679Z,17.45
2022-08-29T02:22:10.211Z,17.43
2022-08-29T02:24:38.649Z,17.47
2022-08-29T02:27:06.907Z,17.48
2022-08-29T02:29:38.429Z,17.49
2022-08-29T02:32:33.195Z,17.48
2022-08-29T02:35:01.999Z,17.48
2022-08-29T02:37:32.478Z,17.51
2022-08-29T02:40:00.623Z,17.47
2022-08-29T02:42:28.771Z,17.37
2022-08-29T02:44:56.826Z,17.43
2022-08-29T02:47:25.305Z,17.40
2022-08-29T02:49:54.982Z,17.40
2022-08-29T02:52:23.140Z,17.41
2022-08-29T02:54:51.225Z,17.42
2022-08-29T02:57:19.310Z,17.43
2022-08-29T02:59:47.322Z,17.47
2022-08-29T03:02:15.413Z,17.44
2022-08-29T03:04:43.468Z,17.46
2022-08-29T03:07:12.918Z,17.42
2022-08-29T03:09:40.994Z,17.41
2022-08-29T03:12:09.433Z,17.39
2022-08-29T03:14:37.593Z,17.41
2022-08-29T03:17:05.833Z,17.41
2022-08-29T03:19:37.166Z,17.40
2022-08-29T03:22:05.653Z,17.40
2022-08-29T03:24:35.535Z,17.41
2022-08-29T03:27:03.815Z,17.42
2022-08-29T03:29:31.919Z,17.43
2022-08-29T03:32:00.009Z,17.38
2022-08-29T03:34:28.902Z,17.36
2022-08-29T03:36:57.159Z,17.36
2022-08-29T03:39:25.174Z,17.41
2022-08-29T03:41:54.642Z,17.44
2022-08-29T03:44:23.308Z,17.44
2022-08-29T03:46:51.445Z,17.39
2022-08-29T03:49:19.518Z,17.45
2022-08-29T03:51:50.045Z,17.49
2022-08-29T03:54:18.239Z,17.50
2022-08-29T03:56:46.673Z,17.48
2022-08-29T03:59:16.828Z,17.48
2022-08-29T04:01:47.320Z,17.48
2022-08-29T04:04:36.410Z,17.49
2022-08-29T04:07:06.406Z,17.48
2022-08-29T04:09:34.786Z,17.54
2022-08-29T04:12:02.847Z,17.49
2022-08-29T04:14:32.475Z,17.54
2022-08-29T04:17:00.575Z,17.56
2022-08-29T04:19:28.631Z,17.56
2022-08-29T04:22:21.874Z,17.55
2022-08-29T04:24:50.109Z,17.54
2022-08-29T04:27:18.269Z,17.54
2022-08-29T04:29:48.417Z,17.51
2022-08-29T04:32:16.554Z,17.50
2022-08-29T04:34:44.765Z,17.49
2022-08-29T04:37:12.891Z,17.49
2022-08-29T04:39:40.873Z,17.53
2022-08-29T04:42:09.002Z,17.54
2022-08-29T04:44:37.054Z,17.56
2022-08-29T04:47:07.020Z,17.62
2022-08-29T04:49:35.053Z,17.62
2022-08-29T04:52:03.670Z,17.63
2022-08-29T04:54:31.782Z,17.66
2022-08-29T04:57:03.308Z,17.66
2022-08-29T04:59:33.223Z,17.68
2022-08-29T05:02:01.627Z,17.69
2022-08-29T05:04:31.049Z,17.69
2022-08-29T05:06:59.077Z,17.72
2022-08-29T05:09:27.156Z,17.71
2022-08-29T05:11:55.216Z,17.73
2022-08-29T05:14:23.341Z,17.74
2022-08-29T05:16:51.420Z,17.77
2022-08-29T05:19:19.628Z,17.79
2022-08-29T05:21:49.468Z,17.80
2022-08-29T05:24:17.556Z,17.79
2022-08-29T05:26:46.580Z,17.75
2022-08-29T05:29:14.588Z,17.80
2022-08-29T05:31:45.696Z,17.82
2022-08-29T05:34:32.047Z,17.79
2022-08-29T05:37:02.241Z,17.80
2022-08-29T05:39:30.423Z,17.79
2022-08-29T05:41:59.588Z,17.81
2022-08-29T05:44:32.913Z,17.84
2022-08-29T05:47:03.676Z,17.83
2022-08-29T05:49:31.763Z,17.82
2022-08-29T05:52:00.666Z,17.82
2022-08-29T05:54:30.351Z,17.80
2022-08-29T05:56:58.987Z,17.86
2022-08-29T05:59:27.093Z,17.90
2022-08-29T06:01:55.140Z,17.94
2022-08-29T06:04:23.210Z,17.91
2022-08-29T06:06:51.727Z,17.85
2022-08-29T06:09:19.839Z,17.95
2022-08-29T06:11:50.423Z,17.99
2022-08-29T06:14:18.806Z,18.02
2022-08-29T06:16:46.943Z,18.02
2022-08-29T06:19:15.045Z,18.03
2022-08-29T06:21:43.296Z,18.01
2022-08-29T06:24:11.426Z,17.99
2022-08-29T06:26:39.493Z,17.98
2022-08-29T06:29:10.251Z,17.96
2022-08-29T06:31:38.883Z,17.97
2022-08-29T06:34:08.065Z,17.97
2022-08-29T06:36:37.156Z,17.91
2022-08-29T06:39:08.099Z,17.95
2022-08-29T06:41:37.211Z,17.99
2022-08-29T06:44:09.696Z,17.98
2022-08-29T06:46:40.520Z,18.02
2022-08-29T06:49:12.147Z,18.07
2022-08-29T06:51:42.106Z,18.08
2022-08-29T06:54:12.821Z,18.14
2022-08-29T06:56:42.459Z,18.18
2022-08-29T06:59:11.964Z,18.22
2022-08-29T07:01:41.200Z,18.26
2022-08-29T07:04:14.337Z,18.28
2022-08-29T07:06:43.138Z,18.27
2022-08-29T07:09:11.424Z,18.21
2022-08-29T07:11:41.451Z,18.31
2022-08-29T07:14:11.563Z,18.38
2022-08-29T07:16:39.942Z,18.39
2022-08-29T07:19:08.714Z,18.45
2022-08-29T07:21:37.110Z,18.47
2022-08-29T07:24:05.746Z,18.51
2022-08-29T07:26:36.313Z,18.50
2022-08-29T07:29:08.208Z,18.46
2022-08-29T07:31:39.051Z,18.46
2022-08-29T07:34:07.735Z,18.52
2022-08-29T07:36:36.711Z,18.57
2022-08-29T07:39:07.561Z,18.63
2022-08-29T07:42:00.371Z,18.65
2022-08-29T07:44:30.280Z,18.70
2022-08-29T07:47:04.435Z,18.77
2022-08-29T07:49:40.935Z,18.82
2022-08-29T07:52:09.296Z,18.89
2022-08-29T07:54:37.458Z,18.94
2022-08-29T07:57:05.798Z,18.99
2022-08-29T07:59:33.807Z,19.03
2022-08-29T08:02:03.759Z,19.00
2022-08-29T08:04:31.939Z,19.03
2022-08-29T08:06:59.964Z,19.06
2022-08-29T08:09:27.948Z,19.12
2022-08-29T08:11:55.966Z,19.10
2022-08-29T08:14:24.040Z,19.14
2022-08-29T08:17:04.680Z,19.15
2022-08-29T08:19:33.255Z,19.15
2022-08-29T08:22:01.260Z,19.21
2022-08-29T08:24:29.286Z,19.21
2022-08-29T08:26:58.011Z,19.26
2022-08-29T08:29:26.371Z,19.29
2022-08-29T08:31:55.889Z,19.34
2022-08-29T08:34:25.492Z,19.36
2022-08-29T08:36:54.116Z,19.45
2022-08-29T08:39:22.186Z,19.50
2022-08-29T08:41:54.785Z,19.38
2022-08-29T08:45:07.114Z,19.53
2022-08-29T08:47:38.023Z,19.59
2022-08-29T08:50:13.110Z,19.66
2022-08-29T08:52:44.503Z,19.70
2022-08-29T08:55:19.182Z,19.71
2022-08-29T08:57:53.816Z,19.71
2022-08-29T09:00:22.086Z,19.76
2022-08-29T09:03:19.048Z,19.83
2022-08-29T09:06:02.114Z,19.83
2022-08-29T09:08:36.328Z,19.87
2022-08-29T09:11:11.361Z,19.88
2022-08-29T09:13:47.968Z,19.94
2022-08-29T09:16:24.785Z,20.02
2022-08-29T09:18:54.251Z,20.10
2022-08-29T09:21:40.421Z,20.13
2022-08-29T09:24:13.776Z,20.23
2022-08-29T09:26:41.883Z,20.23
2022-08-29T09:29:10.104Z,20.26
2022-08-29T09:31:38.182Z,20.34
2022-08-29T09:34:11.981Z,20.38
2022-08-29T09:36:47.503Z,20.44
2022-08-29T09:39:22.106Z,20.51
2022-08-29T09:41:52.945Z,20.45
2022-08-29T09:44:24.141Z,20.50
2022-08-29T09:47:11.426Z,20.53
2022-08-29T09:49:40.799Z,20.61
2022-08-29T09:52:13.579Z,20.61
2022-08-29T09:54:42.564Z,20.68
2022-08-29T09:57:14.782Z,20.58
2022-08-29T09:59:45.142Z,20.67
2022-08-29T10:02:25.324Z,20.80
2022-08-29T10:04:55.348Z,20.89
2022-08-29T10:07:26.608Z,20.87
2022-08-29T10:10:01.391Z,20.82
2022-08-29T10:12:35.328Z,21.05
2022-08-29T10:15:08.356Z,21.17
2022-08-29T10:17:58.031Z,21.18
2022-08-29T10:20:30.291Z,21.17
2022-08-29T10:23:03.502Z,21.27
2022-08-29T10:25:38.265Z,21.24
2022-08-29T10:28:11.206Z,21.25
2022-08-29T10:30:46.474Z,21.20
2022-08-29T10:33:22.565Z,21.20
2022-08-29T10:35:54.960Z,21.21
2022-08-29T10:38:36.300Z,21.35
2022-08-29T10:41:07.930Z,21.44
2022-08-29T10:43:40.257Z,21.46
2022-08-29T10:46:17.811Z,21.57
2022-08-29T10:48:52.655Z,21.58
2022-08-29T10:51:24.274Z,21.65
2022-08-29T10:53:57.642Z,21.68
2022-08-29T10:56:29.658Z,21.74
2022-08-29T10:59:04.780Z,21.81
2022-08-29T11:01:36.503Z,21.84
2022-08-29T11:04:11.079Z,21.79
2022-08-29T11:06:42.472Z,21.87
2022-08-29T11:09:18.629Z,21.90
2022-08-29T11:11:50.007Z,21.79
2022-08-29T11:14:24.540Z,21.92
2022-08-29T11:16:53.604Z,21.95
2022-08-29T11:19:24.870Z,21.99
2022-08-29T11:21:56.697Z,22.07
2022-08-29T11:24:31.698Z,22.14
2022-08-29T11:27:08.399Z,22.11
2022-08-29T11:29:40.477Z,22.21
2022-08-29T11:32:15.038Z,22.29
2022-08-29T11:34:57.455Z,22.30
2022-08-29T11:37:52.951Z,22.37
2022-08-29T11:43:30.297Z,22.43
2022-08-29T11:46:01.636Z,22.46
2022-08-29T11:48:36.132Z,22.41
2022-08-29T11:51:35.962Z,22.48
2022-08-29T11:54:39.237Z,22.54
2022-08-29T11:57:40.053Z,22.67
2022-08-29T12:00:33.354Z,22.56
2022-08-29T12:03:04.382Z,22.65
2022-08-29T12:05:56.078Z,22.82
2022-08-29T12:08:37.177Z,22.82
2022-08-29T12:11:06.661Z,22.96
2022-08-29T12:14:06.225Z,23.02
2022-08-29T12:16:50.138Z,23.04
2022-08-29T12:19:47.660Z,23.08
2022-08-29T12:23:01.481Z,23.12
2022-08-29T12:26:04.109Z,23.14
2022-08-29T12:28:47.057Z,23.18
2022-08-29T12:31:26.888Z,23.22
2022-08-29T12:34:05.823Z,23.35
2022-08-29T12:36:52.271Z,23.43
2022-08-29T12:39:29.236Z,23.51
2022-08-29T12:42:08.140Z,23.60
2022-08-29T12:44:39.094Z,23.62
2022-08-29T12:47:10.282Z,23.63
2022-08-29T12:49:43.144Z,23.64
2022-08-29T12:52:22.452Z,23.80
2022-08-29T12:54:56.177Z,23.86
2022-08-29T12:57:27.587Z,24.04
2022-08-29T12:59:55.777Z,23.83
2022-08-29T13:02:28.750Z,23.94
2022-08-29T13:04:56.907Z,24.00
2022-08-29T13:07:26.132Z,24.13
2022-08-29T13:09:56.056Z,24.24
2022-08-29T13:12:26.106Z,24.11
2022-08-29T13:14:57.637Z,24.22
2022-08-29T13:17:29.467Z,24.15
2022-08-29T13:20:34.571Z,24.29
2022-08-29T13:23:09.192Z,24.33
2022-08-29T13:25:43.218Z,24.31
2022-08-29T13:28:14.839Z,24.44
2022-08-29T13:30:43.422Z,24.26
2022-08-29T13:33:35.479Z,24.28
2022-08-29T13:36:29.701Z,24.46
2022-08-29T13:39:25.020Z,24.45
2022-08-29T13:42:10.091Z,24.46
2022-08-29T13:44:54.349Z,24.47
2022-08-29T13:47:24.038Z,24.42
2022-08-29T13:49:59.005Z,24.35
2022-08-29T13:52:31.756Z,24.35
2022-08-29T13:55:00.295Z,24.20
2022-08-29T13:57:30.458Z,24.27
2022-08-29T13:59:58.936Z,24.35
2022-08-29T14:02:28.629Z,24.30
2022-08-29T14:04:58.425Z,24.28
2022-08-29T14:07:28.627Z,24.32
2022-08-29T14:09:57.018Z,24.33
2022-08-29T14:12:33.009Z,24.35
2022-08-29T14:15:06.570Z,24.38
2022-08-29T14:17:37.201Z,24.64
2022-08-29T14:20:09.650Z,24.88
2022-08-29T14:22:38.046Z,25.00
2022-08-29T14:25:07.283Z,25.11
2022-08-29T14:27:35.312Z,25.23
2022-08-29T14:30:03.559Z,25.28
2022-08-29T14:32:31.643Z,25.45
2022-08-29T14:34:59.680Z,25.69
2022-08-29T14:37:29.103Z,25.87
2022-08-29T14:39:57.237Z,26.09
2022-08-29T14:42:26.219Z,26.27
2022-08-29T14:44:54.348Z,26.40
2022-08-29T14:47:22.447Z,26.38
2022-08-29T14:49:50.499Z,26.52
2022-08-29T14:52:18.619Z,26.56
2022-08-29T14:54:48.015Z,26.75
2022-08-29T14:57:16.278Z,26.85
2022-08-29T14:59:44.883Z,26.83
2022-08-29T15:02:13.413Z,27.00
2022-08-29T15:04:41.524Z,27.15
2022-08-29T15:07:11.743Z,27.29
2022-08-29T15:09:41.738Z,27.44
2022-08-29T15:12:11.503Z,27.50
2022-08-29T15:14:39.728Z,27.51
2022-08-29T15:17:08.468Z,27.52
2022-08-29T15:20:18.167Z,27.58
2022-08-29T15:22:25.426Z,27.70
2022-08-29T15:24:53.779Z,27.72
2022-08-29T15:27:27.548Z,27.80
2022-08-29T15:29:56.027Z,27.70
2022-08-29T15:32:24.032Z,27.85
2022-08-29T15:34:52.403Z,27.95
2022-08-29T15:37:20.419Z,28.10
2022-08-29T15:39:49.914Z,28.20
2022-08-29T15:42:29.525Z,28.21
2022-08-29T15:44:57.616Z,28.25
2022-08-29T15:47:25.706Z,28.32
2022-08-29T15:49:55.819Z,28.31
2022-08-29T15:52:24.035Z,28.27
2022-08-29T15:54:52.182Z,28.28
2022-08-29T15:57:20.789Z,28.33
2022-08-29T15:59:58.639Z,28.25
2022-08-29T16:02:27.582Z,28.27
2022-08-29T16:04:57.182Z,28.26
2022-08-29T16:07:29.251Z,28.08
2022-08-29T16:10:00.124Z,27.99
2022-08-29T16:12:30.949Z,27.94
2022-08-29T16:15:01.936Z,27.88
2022-08-29T16:17:32.104Z,27.82
2022-08-29T16:20:01.188Z,27.72
2022-08-29T16:22:29.536Z,27.70
2022-08-29T16:24:57.952Z,27.59
2022-08-29T16:27:25.968Z,27.51
2022-08-29T16:29:55.469Z,27.38
2022-08-29T16:32:24.854Z,27.30
2022-08-29T16:34:52.892Z,27.23
2022-08-29T16:37:21.176Z,27.11
2022-08-29T16:39:49.273Z,27.05
2022-08-29T16:42:17.389Z,26.94
2022-08-29T16:44:45.564Z,26.78
2022-08-29T16:47:13.667Z,26.51
2022-08-29T16:49:43.104Z,26.29
2022-08-29T16:52:11.189Z,26.44
2022-08-29T16:54:39.782Z,26.49
2022-08-29T16:57:07.912Z,26.45
2022-08-29T16:59:37.227Z,26.43
2022-08-29T17:02:05.848Z,26.32
2022-08-29T17:04:33.929Z,26.27
2022-08-29T17:07:03.358Z,26.23
2022-08-29T17:09:30.511Z,26.16
2022-08-29T17:11:57.740Z,26.07
2022-08-29T17:14:29.269Z,26.00
2022-08-29T17:16:57.386Z,25.96
2022-08-29T17:19:25.492Z,25.91
2022-08-29T17:21:53.639Z,25.87
2022-08-29T17:24:23.043Z,25.78
2022-08-29T17:26:51.102Z,25.71
2022-08-29T17:29:19.228Z,25.63
2022-08-29T17:31:47.396Z,25.59
2022-08-29T17:34:16.268Z,25.54
2022-08-29T17:36:44.715Z,25.46
2022-08-29T17:39:13.461Z,25.38
2022-08-29T17:41:43.363Z,25.32
2022-08-29T17:44:13.098Z,25.25
2022-08-29T17:46:41.430Z,25.18
2022-08-29T17:49:10.474Z,25.12
2022-08-29T17:51:39.603Z,25.04
2022-08-29T17:54:12.355Z,24.98
2022-08-29T17:56:46.105Z,24.89
2022-08-29T17:59:14.419Z,24.82
2022-08-29T18:01:42.540Z,24.74
2022-08-29T18:04:11.278Z,24.67
2022-08-29T18:06:39.736Z,24.60
2022-08-29T18:09:08.874Z,24.52
2022-08-29T18:11:38.644Z,24.47
2022-08-29T18:14:08.492Z,24.37
2022-08-29T18:16:36.829Z,24.26
2022-08-29T18:19:05.848Z,24.16
2022-08-29T18:21:34.496Z,24.05
2022-08-29T18:24:02.636Z,23.98
2022-08-29T18:26:30.790Z,23.89
2022-08-29T18:28:59.106Z,23.84
2022-08-29T18:31:28.475Z,23.76
2022-08-29T18:34:00.584Z,23.68
2022-08-29T18:36:29.671Z,23.60
2022-08-29T18:38:57.970Z,23.52
2022-08-29T18:41:26.825Z,23.46
2022-08-29T18:43:54.858Z,23.37
2022-08-29T18:46:23.315Z,23.30
2022-08-29T18:48:53.200Z,23.25
2022-08-29T18:51:21.350Z,23.17
2022-08-29T18:53:49.508Z,23.10
2022-08-29T18:56:17.734Z,23.03
2022-08-29T18:58:45.789Z,22.95
2022-08-29T19:01:17.152Z,22.87
2022-08-29T19:03:58.889Z,22.80
2022-08-29T19:06:27.603Z,22.73
2022-08-29T19:08:56.642Z,22.68
2022-08-29T19:11:25.506Z,22.62
2022-08-29T19:13:53.994Z,22.56
2022-08-29T19:16:22.943Z,22.51
2022-08-29T19:18:51.341Z,22.47
2022-08-29T19:21:20.227Z,22.41
2022-08-29T19:23:52.191Z,22.36
2022-08-29T19:26:24.215Z,22.31
2022-08-29T19:28:54.228Z,22.25
2022-08-29T19:31:24.957Z,22.19
2022-08-29T19:33:53.560Z,22.15
2022-08-29T19:36:24.018Z,22.10
2022-08-29T19:38:52.106Z,22.08
2022-08-29T19:41:20.319Z,22.01
2022-08-29T19:43:48.843Z,21.94
2022-08-29T19:46:19.960Z,21.88
2022-08-29T19:48:51.341Z,21.84
2022-08-29T19:51:25.759Z,21.76
2022-08-29T19:53:57.633Z,21.71
2022-08-29T19:56:26.917Z,21.65
2022-08-29T19:58:55.142Z,21.53
2022-08-29T20:01:23.903Z,21.47
2022-08-29T20:03:52.735Z,21.40
2022-08-29T20:06:23.310Z,21.34
2022-08-29T20:08:51.547Z,21.27
2022-08-29T20:11:21.951Z,21.20
2022-08-29T20:13:51.144Z,21.18
2022-08-29T20:16:21.587Z,21.16
2022-08-29T20:18:50.462Z,21.09
2022-08-29T20:21:19.169Z,21.05
2022-08-29T20:23:51.468Z,21.02
2022-08-29T20:26:23.955Z,20.97
2022-08-29T20:28:54.167Z,20.94
2022-08-29T20:31:23.318Z,20.90
2022-08-29T20:33:51.790Z,20.87
2022-08-29T20:36:38.992Z,20.82
2022-08-29T20:39:10.251Z,20.77
2022-08-29T20:41:38.598Z,20.70
2022-08-29T20:44:09.909Z,20.57
2022-08-29T20:46:40.660Z,20.47
2022-08-29T20:49:09.128Z,20.44
2022-08-29T20:51:37.589Z,20.38
2022-08-29T20:54:06.422Z,20.34
2022-08-29T20:56:35.843Z,20.31
2022-08-29T20:59:04.030Z,20.22
2022-08-29T21:01:32.185Z,20.19
2022-08-29T21:04:20.950Z,20.11
2022-08-29T21:06:49.472Z,20.08
2022-08-29T21:09:17.520Z,20.07
2022-08-29T21:11:46.927Z,20.00
2022-08-29T21:14:15.102Z,20.00
2022-08-29T21:16:43.126Z,19.98
2022-08-29T21:19:11.363Z,19.89
2022-08-29T21:21:41.087Z,19.83
2022-08-29T21:24:11.459Z,19.79
2022-08-29T21:26:40.037Z,19.80
2022-08-29T21:29:09.509Z,19.73
2022-08-29T21:31:37.799Z,19.71
2022-08-29T21:34:07.252Z,19.71
2022-08-29T21:36:36.772Z,19.70
2022-08-29T21:39:06.304Z,19.69
2022-08-29T21:41:35.368Z,19.67
2022-08-29T21:44:03.957Z,19.64
2022-08-29T21:46:35.255Z,19.63
2022-08-29T21:49:06.237Z,19.63
2022-08-29T21:51:35.043Z,19.59
2022-08-29T21:54:03.738Z,19.55
2022-08-29T21:56:33.750Z,19.50
2022-08-29T21:59:02.602Z,19.45
2022-08-29T22:01:38.724Z,19.38
2022-08-29T22:04:10.271Z,19.34
2022-08-29T22:06:39.698Z,19.29
2022-08-29T22:09:09.875Z,19.23
2022-08-29T22:11:38.410Z,19.21
2022-08-29T22:14:07.406Z,19.21
2022-08-29T22:16:37.029Z,19.16
2022-08-29T22:19:08.165Z,19.15
2022-08-29T22:21:38.164Z,19.15
2022-08-29T22:24:07.781Z,19.14
2022-08-29T22:26:37.011Z,19.13
2022-08-29T22:29:05.377Z,19.09
2022-08-29T22:31:34.006Z,19.04
2022-08-29T22:34:05.288Z,18.99
2022-08-29T22:36:34.375Z,18.91
2022-08-29T22:39:02.474Z,18.86
2022-08-29T22:41:31.223Z,18.84
2022-08-29T22:46:49.771Z,18.80
2022-08-29T22:49:19.213Z,18.79
2022-08-29T22:51:48.242Z,18.77
2022-08-29T22:54:33.940Z,18.75
2022-08-29T22:57:02.653Z,18.68
2022-08-29T22:59:30.731Z,18.66
2022-08-29T23:01:59.013Z,18.62
2022-08-29T23:04:28.553Z,18.61
2022-08-29T23:06:56.618Z,18.49
2022-08-29T23:09:24.658Z,18.48
2022-08-29T23:11:52.700Z,18.48
2022-08-29T23:14:21.557Z,18.50
2022-08-29T23:16:50.077Z,18.50
2022-08-29T23:19:18.311Z,18.44
2022-08-29T23:21:47.708Z,18.38
2022-08-29T23:24:16.628Z,18.32
2022-08-29T23:26:44.692Z,18.31
2022-08-29T23:29:12.760Z,18.34
2022-08-29T23:31:40.763Z,18.30
2022-08-29T23:34:08.877Z,18.26
2022-08-29T23:36:37.678Z,18.23
2022-08-29T23:39:07.555Z,18.17
2022-08-29T23:41:36.361Z,18.09
2022-08-29T23:44:05.130Z,18.08
2022-08-29T23:46:33.299Z,18.04
2022-08-29T23:49:01.377Z,18.02
2022-08-29T23:51:29.675Z,18.01
2022-08-29T23:53:58.262Z,18.00
2022-08-29T23:56:27.751Z,17.95
2022-08-29T23:58:56.354Z,17.93
